createdAt,value
2023-02-05T00:00:16.788Z,16.80
2023-02-05T00:02:43.260Z,26.37
2023-02-05T00:05:09.832Z,17.60
2023-02-05T00:07:36.358Z,10.33
2023-02-05T00:10:02.826Z,21.47
2023-02-05T00:12:29.300Z,23.60
2023-02-05T00:14:55.875Z,21.83
2023-02-05T00:17:22.951Z,27.50
2023-02-05T00:19:49.464Z,34.23
2023-02-05T00:22:15.937Z,18.90
2023-02-05T00:24:42.458Z,18.47
2023-02-05T00:27:10.047Z,18.33
2023-02-05T00:29:36.534Z,28.90
2023-02-05T00:32:03.644Z,24.00
2023-02-05T00:34:30.120Z,14.60
2023-02-05T00:36:56.620Z,18.03
2023-02-05T00:39:23.130Z,15.30
2023-02-05T00:41:49.633Z,30.97
2023-02-05T00:44:16.187Z,23.00
2023-02-05T00:46:42.677Z,21.03
2023-02-05T00:49:09.166Z,27.80
2023-02-05T00:51:35.652Z,15.30
2023-02-05T00:54:02.190Z,29.70
2023-02-05T00:56:28.687Z,27.83
2023-02-05T00:58:57.399Z,26.93
2023-02-05T01:01:23.915Z,22.93
2023-02-05T01:03:50.458Z,32.50
2023-02-05T01:06:16.983Z,21.73
2023-02-05T01:08:43.501Z,23.57
2023-02-05T01:11:13.073Z,16.57
2023-02-05T01:13:39.550Z,33.13
2023-02-05T01:16:06.154Z,24.37
2023-02-05T01:18:32.709Z,20.20
2023-02-05T01:20:59.254Z,35.03
2023-02-05T01:23:25.857Z,13.50
2023-02-05T01:25:52.351Z,24.13
2023-02-05T01:28:18.889Z,30.97
2023-02-05T01:30:45.411Z,28.97
2023-02-05T01:33:12.219Z,19.53
2023-02-05T01:35:38.782Z,16.70
2023-02-05T01:38:05.281Z,11.53
2023-02-05T01:40:31.767Z,28.07
2023-02-05T01:42:58.274Z,28.90
2023-02-05T01:45:32.703Z,27.93
2023-02-05T01:47:59.487Z,14.23
2023-02-05T01:50:25.964Z,14.50
2023-02-05T01:52:52.459Z,41.47
2023-02-05T01:55:18.978Z,20.77
2023-02-05T01:57:45.477Z,15.13
2023-02-05T02:00:11.978Z,22.50
2023-02-05T02:02:38.462Z,27.07
2023-02-05T02:05:05.005Z,27.07
2023-02-05T02:07:31.588Z,19.27
2023-02-05T02:09:58.127Z,29.27
2023-02-05T02:12:24.622Z,22.97
2023-02-05T02:14:51.093Z,22.73
2023-02-05T02:17:17.552Z,24.37
2023-02-05T02:19:44.029Z,18.20
2023-02-05T02:22:10.529Z,21.27
2023-02-05T02:24:37.008Z,16.57
2023-02-05T02:27:03.470Z,25.97
2023-02-05T02:29:31.038Z,25.97
2023-02-05T02:31:57.529Z,16.53
2023-02-05T02:34:24.032Z,22.47
2023-02-05T02:36:50.582Z,17.80
2023-02-05T02:39:17.069Z,25.87
2023-02-05T02:41:43.677Z,21.90
2023-02-05T02:44:10.221Z,16.63
2023-02-05T02:46:36.860Z,15.90
2023-02-05T02:49:03.414Z,25.83
2023-02-05T02:51:29.931Z,24.17
2023-02-05T02:53:56.431Z,21.30
2023-02-05T02:56:22.950Z,15.70
2023-02-05T02:58:49.519Z,20.13
2023-02-05T03:01:16.384Z,26.40
2023-02-05T03:03:42.845Z,21.37
2023-02-05T03:06:09.822Z,21.23
2023-02-05T03:08:36.316Z,20.53
2023-02-05T03:11:02.967Z,19.07
2023-02-05T03:13:29.482Z,22.13
2023-02-05T03:15:56.037Z,22.43
2023-02-05T03:18:22.533Z,19.23
2023-02-05T03:20:49.008Z,16.23
2023-02-05T03:23:15.581Z,21.80
2023-02-05T03:25:42.138Z,19.33
2023-02-05T03:28:08.743Z,29.70
2023-02-05T03:30:35.279Z,16.50
2023-02-05T03:33:01.770Z,22.30
2023-02-05T03:35:28.285Z,17.20
2023-02-05T03:37:54.750Z,17.50
2023-02-05T03:40:21.246Z,17.80
2023-02-05T03:42:47.759Z,28.13
2023-02-05T03:45:14.275Z,19.43
2023-02-05T03:47:40.834Z,18.63
2023-02-05T03:50:07.299Z,39.83
2023-02-05T03:52:35.605Z,30.47
2023-02-05T03:55:02.097Z,15.53
2023-02-05T03:57:28.582Z,36.83
2023-02-05T03:59:55.069Z,19.10
2023-02-05T04:02:21.563Z,30.70
2023-02-05T04:04:48.042Z,22.77
2023-02-05T04:07:14.709Z,21.80
2023-02-05T04:09:41.180Z,29.70
2023-02-05T04:12:07.697Z,18.27
2023-02-05T04:14:34.174Z,26.70
2023-02-05T04:17:00.859Z,22.93
2023-02-05T04:19:27.319Z,24.13
2023-02-05T04:21:53.815Z,25.10
2023-02-05T04:24:20.317Z,16.40
2023-02-05T04:26:46.801Z,15.43
2023-02-05T04:29:13.274Z,22.43
2023-02-05T04:31:39.831Z,30.43
2023-02-05T04:34:06.492Z,33.47
2023-02-05T04:36:33.024Z,20.63
2023-02-05T04:38:59.489Z,35.13
2023-02-05T04:41:26.054Z,29.77
2023-02-05T04:43:52.525Z,31.00
2023-02-05T04:46:19.206Z,23.67
2023-02-05T04:48:45.752Z,22.93
2023-02-05T04:51:12.279Z,36.70
2023-02-05T04:53:38.752Z,31.63
2023-02-05T04:56:08.295Z,37.63
2023-02-05T04:58:34.776Z,29.13
2023-02-05T05:01:01.359Z,36.90
2023-02-05T05:03:27.920Z,20.17
2023-02-05T05:05:54.428Z,26.97
2023-02-05T05:08:21.098Z,33.83
2023-02-05T05:10:47.562Z,26.90
2023-02-05T05:13:14.064Z,20.10
2023-02-05T05:15:40.881Z,17.00
2023-02-05T05:18:07.444Z,23.40
2023-02-05T05:20:33.908Z,39.63
2023-02-05T05:23:00.447Z,25.93
2023-02-05T05:25:26.988Z,28.17
2023-02-05T05:27:53.497Z,27.30
2023-02-05T05:30:20.172Z,38.53
2023-02-05T05:32:46.734Z,33.00
2023-02-05T05:35:13.184Z,38.20
2023-02-05T05:37:39.742Z,22.63
2023-02-05T05:40:25.135Z,28.00
2023-02-05T05:43:14.698Z,26.03
2023-02-05T05:45:42.205Z,38.37
2023-02-05T05:48:09.156Z,21.60
2023-02-05T05:50:35.669Z,37.03
2023-02-05T05:53:02.174Z,23.93
2023-02-05T05:55:28.638Z,24.23
2023-02-05T05:57:55.189Z,26.73
2023-02-05T06:00:21.687Z,28.63
2023-02-05T06:02:48.241Z,34.93
2023-02-05T06:05:14.748Z,35.17
2023-02-05T06:07:41.250Z,29.07
2023-02-05T06:10:07.780Z,24.40
2023-02-05T06:12:34.288Z,20.33
2023-02-05T06:15:00.770Z,17.30
2023-02-05T06:17:27.866Z,19.07
2023-02-05T06:19:54.375Z,26.43
2023-02-05T06:22:20.910Z,21.33
2023-02-05T06:24:47.586Z,30.83
2023-02-05T06:27:14.218Z,32.73
2023-02-05T06:29:40.734Z,24.73
2023-02-05T06:32:07.229Z,33.57
2023-02-05T06:34:33.824Z,18.27
2023-02-05T06:37:00.383Z,25.13
2023-02-05T06:39:26.941Z,23.93
2023-02-05T06:41:53.404Z,29.50
2023-02-05T06:44:19.929Z,25.13
2023-02-05T06:46:46.407Z,31.63
2023-02-05T06:49:12.929Z,21.27
2023-02-05T06:51:39.440Z,29.13
2023-02-05T06:54:05.934Z,29.47
2023-02-05T06:56:32.414Z,26.13
2023-02-05T06:58:58.901Z,28.00
2023-02-05T07:01:25.445Z,30.50
2023-02-05T07:03:55.951Z,25.27
2023-02-05T07:06:23.432Z,27.70
2023-02-05T07:08:49.938Z,23.53
2023-02-05T07:11:16.432Z,29.67
2023-02-05T07:13:42.963Z,33.63
2023-02-05T07:16:09.454Z,34.50
2023-02-05T07:18:36.061Z,57.37
2023-02-05T07:21:02.562Z,35.53
2023-02-05T07:23:29.051Z,42.47
2023-02-05T07:25:55.584Z,43.80
2023-02-05T07:28:22.074Z,44.60
2023-02-05T07:30:49.720Z,42.57
2023-02-05T07:33:16.236Z,36.43
2023-02-05T07:35:42.855Z,40.23
2023-02-05T07:38:10.777Z,38.37
2023-02-05T07:40:37.297Z,43.97
2023-02-05T07:43:03.777Z,47.73
2023-02-05T07:45:30.272Z,37.70
2023-02-05T07:47:56.805Z,50.20
2023-02-05T07:50:23.361Z,53.27
2023-02-05T07:52:49.895Z,55.50
2023-02-05T07:55:16.410Z,37.53
2023-02-05T07:57:43.001Z,48.37
2023-02-05T08:00:09.782Z,49.03
2023-02-05T08:02:36.377Z,67.00
2023-02-05T08:05:02.898Z,47.53
2023-02-05T08:07:29.391Z,44.60
2023-02-05T08:09:55.880Z,41.03
2023-02-05T08:12:22.349Z,54.30
2023-02-05T08:14:48.895Z,50.73
2023-02-05T08:17:15.397Z,45.00
2023-02-05T08:19:42.155Z,49.70
2023-02-05T08:22:08.823Z,46.03
2023-02-05T08:24:35.317Z,49.60
2023-02-05T08:27:01.854Z,51.30
2023-02-05T08:29:28.374Z,47.60
2023-02-05T08:31:54.898Z,44.30
2023-02-05T08:34:21.414Z,44.70
2023-02-05T08:36:47.902Z,56.40
2023-02-05T08:39:14.421Z,45.20
2023-02-05T08:41:40.999Z,38.20
2023-02-05T08:44:07.522Z,40.60
2023-02-05T08:46:48.722Z,36.40
2023-02-05T08:49:16.918Z,31.90
2023-02-05T08:51:43.473Z,33.43
2023-02-05T08:54:13.207Z,36.07
2023-02-05T08:56:40.196Z,39.40
2023-02-05T08:59:06.689Z,38.30
2023-02-05T09:01:33.351Z,39.67
2023-02-05T09:03:59.950Z,36.57
2023-02-05T09:06:26.510Z,32.90
2023-02-05T09:08:53.025Z,32.47
2023-02-05T09:11:19.531Z,37.97
2023-02-05T09:13:46.066Z,41.93
2023-02-05T09:16:12.572Z,28.83
2023-02-05T09:18:39.029Z,35.93
2023-02-05T09:21:05.530Z,28.93
2023-02-05T09:23:32.076Z,24.47
2023-02-05T09:25:58.614Z,25.07
2023-02-05T09:28:25.115Z,21.83
2023-02-05T09:30:51.749Z,27.27
2023-02-05T09:33:18.261Z,28.73
2023-02-05T09:35:44.807Z,27.30
2023-02-05T09:38:11.335Z,31.37
2023-02-05T09:40:37.822Z,25.17
2023-02-05T09:43:04.368Z,20.13
2023-02-05T09:45:30.884Z,22.67
2023-02-05T09:47:57.346Z,21.77
2023-02-05T09:50:27.530Z,21.80
2023-02-05T09:52:54.022Z,19.57
2023-02-05T09:55:20.534Z,21.10
2023-02-05T09:57:47.020Z,23.30
2023-02-05T10:00:13.547Z,25.40
2023-02-05T10:02:40.070Z,21.07
2023-02-05T10:05:06.546Z,23.53
2023-02-05T10:07:33.089Z,23.23
2023-02-05T10:09:59.832Z,21.03
2023-02-05T10:12:26.351Z,20.60
2023-02-05T10:14:52.876Z,21.47
2023-02-05T10:17:19.370Z,19.20
2023-02-05T10:19:45.869Z,19.87
2023-02-05T10:22:12.639Z,17.20
2023-02-05T10:24:39.104Z,10.77
2023-02-05T10:27:05.691Z,13.00
2023-02-05T10:29:32.265Z,9.50
2023-02-05T10:31:58.736Z,9.43
2023-02-05T10:34:25.205Z,10.50
2023-02-05T10:36:51.756Z,8.63
2023-02-05T10:39:18.367Z,11.07
2023-02-05T10:41:44.890Z,10.37
2023-02-05T10:44:11.469Z,5.53
2023-02-05T10:46:37.985Z,7.97
2023-02-05T10:49:04.490Z,4.83
2023-02-05T10:51:31.058Z,2.20
2023-02-05T10:53:57.549Z,1.40
2023-02-05T10:56:24.083Z,5.30
2023-02-05T10:58:50.596Z,3.57
2023-02-05T11:01:17.162Z,2.10
2023-02-05T11:03:43.741Z,3.07
2023-02-05T11:06:10.232Z,3.13
2023-02-05T11:08:36.954Z,4.40
2023-02-05T11:11:03.460Z,4.80
2023-02-05T11:13:30.155Z,5.10
2023-02-05T11:15:56.764Z,2.03
2023-02-05T11:18:23.313Z,2.57
2023-02-05T11:20:49.806Z,4.50
2023-02-05T11:23:16.377Z,3.97
2023-02-05T11:25:42.868Z,9.00
2023-02-05T11:28:09.490Z,9.17
2023-02-05T11:30:52.329Z,3.53
2023-02-05T11:33:19.437Z,3.30
2023-02-05T11:35:45.930Z,5.87
2023-02-05T11:38:12.566Z,3.50
2023-02-05T11:40:39.044Z,7.97
2023-02-05T11:43:05.575Z,3.50
2023-02-05T11:45:32.060Z,4.10
2023-02-05T11:47:58.567Z,8.80
2023-02-05T11:50:25.138Z,4.53
2023-02-05T11:52:51.637Z,4.50
2023-02-05T11:55:18.130Z,7.53
2023-02-05T11:57:44.666Z,4.53
2023-02-05T12:00:12.652Z,4.33
2023-02-05T12:02:39.253Z,5.07
2023-02-05T12:05:05.774Z,4.10
2023-02-05T12:07:32.262Z,4.77
2023-02-05T12:09:59.825Z,4.80
2023-02-05T12:12:26.305Z,4.30
2023-02-05T12:14:52.853Z,3.00
2023-02-05T12:17:19.363Z,2.10
2023-02-05T12:19:45.833Z,2.90
2023-02-05T12:22:12.308Z,3.90
2023-02-05T12:24:38.835Z,4.03
2023-02-05T12:27:05.366Z,2.27
2023-02-05T12:29:31.873Z,0.93
2023-02-05T12:31:58.442Z,1.20
2023-02-05T12:34:27.631Z,1.13
2023-02-05T12:36:54.105Z,1.10
2023-02-05T12:39:20.650Z,1.17
2023-02-05T12:41:47.121Z,1.67
2023-02-05T12:44:13.634Z,0.90
2023-02-05T12:46:40.134Z,1.10
2023-02-05T12:49:06.613Z,1.23
2023-02-05T12:51:33.148Z,1.47
2023-02-05T12:53:59.764Z,2.87
2023-02-05T12:56:26.287Z,1.20
2023-02-05T12:58:52.766Z,2.30
2023-02-05T13:01:20.095Z,1.67
2023-02-05T13:03:46.696Z,17.90
2023-02-05T13:06:13.264Z,2.10
2023-02-05T13:08:42.124Z,6.40
2023-02-05T13:11:08.809Z,4.23
2023-02-05T13:13:35.338Z,3.00
2023-02-05T13:16:01.860Z,4.60
2023-02-05T13:18:28.347Z,4.13
2023-02-05T13:21:13.754Z,50.97
2023-02-05T13:23:59.117Z,21.70
2023-02-05T13:26:25.657Z,18.17
2023-02-05T13:28:52.988Z,40.23
2023-02-05T13:31:19.619Z,14.93
2023-02-05T13:33:46.214Z,34.40
2023-02-05T13:36:12.761Z,109.03
2023-02-05T13:38:39.280Z,19.77
2023-02-05T13:41:05.777Z,9.87
2023-02-05T13:43:32.407Z,13.23
2023-02-05T13:45:58.937Z,14.90
2023-02-05T13:48:25.440Z,62.10
2023-02-05T13:50:51.930Z,59.63
2023-02-05T13:53:18.421Z,27.67
2023-02-05T13:55:44.961Z,18.80
2023-02-05T13:58:11.478Z,12.93
2023-02-05T14:00:38.050Z,16.73
2023-02-05T14:03:05.669Z,18.17
2023-02-05T14:05:32.460Z,13.13
2023-02-05T14:08:02.907Z,16.30
2023-02-05T14:10:29.462Z,16.33
2023-02-05T14:12:56.008Z,15.70
2023-02-05T14:15:23.261Z,24.73
2023-02-05T14:17:49.758Z,13.37
2023-02-05T14:20:16.257Z,14.73
2023-02-05T14:22:42.782Z,19.87
2023-02-05T14:25:09.338Z,23.03
2023-02-05T14:27:35.858Z,17.00
2023-02-05T14:30:02.349Z,26.43
2023-02-05T14:32:28.842Z,26.63
2023-02-05T14:34:55.541Z,18.67
2023-02-05T14:37:22.083Z,15.10
2023-02-05T14:39:48.566Z,21.23
2023-02-05T14:42:15.056Z,14.27
2023-02-05T14:44:42.374Z,18.00
2023-02-05T14:47:08.896Z,20.97
2023-02-05T14:49:36.670Z,17.27
2023-02-05T14:52:03.158Z,14.40
2023-02-05T14:54:29.658Z,9.27
2023-02-05T14:56:56.144Z,11.90
2023-02-05T14:59:22.673Z,10.27
2023-02-05T15:01:54.409Z,11.77
2023-02-05T15:04:21.127Z,10.63
2023-02-05T15:06:47.631Z,10.97
2023-02-05T15:09:14.125Z,62.93
2023-02-05T15:11:40.633Z,16.50
2023-02-05T15:14:07.152Z,10.03
2023-02-05T15:16:36.383Z,26.27
2023-02-05T15:19:02.865Z,11.13
2023-02-05T15:21:29.365Z,21.60
2023-02-05T15:23:55.841Z,14.47
2023-02-05T15:26:22.355Z,13.47
2023-02-05T15:28:48.839Z,14.07
2023-02-05T15:31:15.462Z,13.30
2023-02-05T15:33:42.024Z,14.17
2023-02-05T15:36:08.775Z,10.63
2023-02-05T15:38:35.356Z,19.53
2023-02-05T15:41:01.903Z,25.63
2023-02-05T15:43:28.441Z,19.83
2023-02-05T15:45:54.924Z,22.40
2023-02-05T15:48:21.431Z,16.60
2023-02-05T15:50:47.965Z,16.90
2023-02-05T15:53:14.470Z,16.77
2023-02-05T15:55:40.964Z,28.27
2023-02-05T15:58:07.508Z,19.10
2023-02-05T16:00:34.003Z,21.43
2023-02-05T16:03:00.581Z,25.00
2023-02-05T16:05:27.109Z,20.03
2023-02-05T16:08:01.872Z,27.50
2023-02-05T16:10:28.414Z,18.80
2023-02-05T16:12:54.909Z,17.50
2023-02-05T16:15:21.437Z,22.63
2023-02-05T16:17:47.909Z,17.07
2023-02-05T16:20:14.390Z,19.27
2023-02-05T16:22:41.011Z,20.07
2023-02-05T16:25:07.562Z,16.23
2023-02-05T16:27:34.062Z,15.47
2023-02-05T16:30:05.977Z,16.37
2023-02-05T16:32:32.491Z,14.70
2023-02-05T16:34:58.985Z,22.60
2023-02-05T16:37:25.478Z,13.60
2023-02-05T16:39:53.855Z,14.57
2023-02-05T16:42:20.361Z,18.40
2023-02-05T16:44:46.833Z,28.23
2023-02-05T16:47:13.324Z,13.47
2023-02-05T16:49:39.806Z,12.07
2023-02-05T16:52:06.347Z,17.43
2023-02-05T16:54:32.906Z,13.20
2023-02-05T16:56:59.402Z,13.97
2023-02-05T16:59:25.978Z,9.60
2023-02-05T17:01:52.481Z,15.73
2023-02-05T17:04:26.431Z,53.43
2023-02-05T17:06:52.973Z,14.83
2023-02-05T17:09:19.449Z,18.83
2023-02-05T17:11:45.977Z,27.23
2023-02-05T17:14:12.680Z,13.13
2023-02-05T17:16:39.311Z,7.57
2023-02-05T17:19:06.025Z,11.53
2023-02-05T17:21:32.538Z,7.10
2023-02-05T17:23:59.756Z,13.17
2023-02-05T17:26:26.511Z,6.43
2023-02-05T17:28:53.081Z,8.10
2023-02-05T17:31:22.379Z,16.80
2023-02-05T17:33:48.899Z,2.50
2023-02-05T17:36:16.267Z,6.10
2023-02-05T17:38:42.833Z,13.50
2023-02-05T17:41:28.231Z,23.37
2023-02-05T17:43:54.746Z,13.57
2023-02-05T17:46:21.236Z,17.23
2023-02-05T17:48:47.737Z,5.60
2023-02-05T17:51:14.250Z,8.77
2023-02-05T17:53:40.721Z,7.00
2023-02-05T17:56:07.568Z,10.00
2023-02-05T17:58:34.043Z,8.63
2023-02-05T18:01:00.972Z,8.20
2023-02-05T18:03:27.538Z,7.70
2023-02-05T18:05:54.073Z,14.13
2023-02-05T18:08:20.834Z,8.20
2023-02-05T18:10:47.378Z,12.33
2023-02-05T18:13:16.581Z,16.40
2023-02-05T18:15:43.141Z,8.23
2023-02-05T18:18:09.635Z,7.70
2023-02-05T18:20:36.456Z,13.10
2023-02-05T18:23:03.694Z,14.10
2023-02-05T18:25:30.217Z,11.93
2023-02-05T18:27:56.799Z,22.43
2023-02-05T18:30:23.354Z,10.40
2023-02-05T18:32:49.858Z,11.50
2023-02-05T18:35:16.398Z,11.20
2023-02-05T18:37:42.946Z,22.20
2023-02-05T18:40:09.536Z,15.73
2023-02-05T18:42:36.111Z,12.70
2023-02-05T18:45:02.633Z,12.70
2023-02-05T18:47:29.115Z,10.13
2023-02-05T18:49:55.690Z,9.20
2023-02-05T18:52:26.424Z,12.43
2023-02-05T18:54:54.036Z,7.93
2023-02-05T18:57:20.556Z,11.53
2023-02-05T18:59:48.464Z,12.63
2023-02-05T19:02:14.962Z,9.20
2023-02-05T19:04:41.469Z,15.20
2023-02-05T19:07:07.944Z,12.33
2023-02-05T19:09:34.423Z,11.60
2023-02-05T19:12:00.968Z,31.20
2023-02-05T19:14:27.525Z,11.03
2023-02-05T19:16:54.128Z,9.97
2023-02-05T19:19:23.748Z,11.07
2023-02-05T19:21:50.456Z,16.43
2023-02-05T19:24:18.379Z,18.63
2023-02-05T19:26:44.987Z,15.60
2023-02-05T19:29:11.497Z,17.43
2023-02-05T19:31:38.039Z,23.63
2023-02-05T19:34:04.598Z,24.40
2023-02-05T19:36:31.144Z,19.93
2023-02-05T19:38:57.675Z,23.63
2023-02-05T19:41:24.215Z,27.43
2023-02-05T19:43:50.780Z,19.27
2023-02-05T19:46:17.311Z,18.40
2023-02-05T19:48:43.886Z,30.33
2023-02-05T19:51:10.401Z,29.43
2023-02-05T19:53:37.780Z,24.37
2023-02-05T19:56:06.883Z,32.60
2023-02-05T19:58:33.840Z,26.53
2023-02-05T20:01:00.348Z,24.43
2023-02-05T20:03:26.917Z,22.63
2023-02-05T20:05:53.451Z,23.53
2023-02-05T20:08:19.924Z,27.87
2023-02-05T20:10:46.413Z,22.23
2023-02-05T20:13:13.826Z,21.77
2023-02-05T20:15:40.630Z,23.07
2023-02-05T20:18:07.321Z,24.93
2023-02-05T20:20:34.192Z,23.10
2023-02-05T20:23:00.719Z,27.43
2023-02-05T20:25:27.245Z,23.73
2023-02-05T20:27:53.811Z,27.00
2023-02-05T20:30:39.069Z,23.60
2023-02-05T20:33:05.620Z,23.83
2023-02-05T20:35:32.159Z,22.33
2023-02-05T20:37:58.657Z,29.53
2023-02-05T20:40:25.177Z,22.90
2023-02-05T20:42:51.666Z,23.10
2023-02-05T20:45:18.164Z,20.13
2023-02-05T20:47:44.682Z,24.63
2023-02-05T20:50:11.172Z,27.37
2023-02-05T20:52:37.709Z,29.10
2023-02-05T20:55:04.218Z,31.33
2023-02-05T20:57:30.732Z,31.97
2023-02-05T20:59:57.220Z,26.27
2023-02-05T21:02:24.309Z,33.50
2023-02-05T21:04:52.530Z,38.33
2023-02-05T21:07:19.522Z,43.87
2023-02-05T21:09:45.998Z,26.47
2023-02-05T21:12:12.604Z,18.80
2023-02-05T21:14:39.179Z,18.80
2023-02-05T21:17:09.123Z,21.60
2023-02-05T21:19:35.825Z,24.53
2023-02-05T21:22:02.578Z,26.03
2023-02-05T21:24:29.073Z,21.93
2023-02-05T21:26:55.651Z,24.37
2023-02-05T21:29:22.161Z,17.67
2023-02-05T21:31:48.793Z,22.23
2023-02-05T21:34:15.336Z,31.73
2023-02-05T21:36:41.859Z,14.70
2023-02-05T21:39:08.399Z,22.80
2023-02-05T21:41:34.993Z,11.23
2023-02-05T21:44:02.021Z,12.67
2023-02-05T21:46:29.150Z,12.93
2023-02-05T21:48:55.713Z,29.10
2023-02-05T21:51:22.202Z,22.00
2023-02-05T21:53:48.740Z,18.40
2023-02-05T21:56:15.343Z,24.50
2023-02-05T21:58:41.881Z,8.47
2023-02-05T22:01:08.590Z,10.07
2023-02-05T22:03:35.122Z,16.47
2023-02-05T22:06:01.759Z,14.90
2023-02-05T22:08:28.251Z,22.03
2023-02-05T22:10:54.744Z,14.27
2023-02-05T22:13:21.228Z,18.33
2023-02-05T22:15:47.750Z,17.63
2023-02-05T22:18:14.273Z,22.63
2023-02-05T22:20:40.768Z,15.30
2023-02-05T22:23:07.295Z,21.63
2023-02-05T22:25:34.271Z,22.37
2023-02-05T22:28:01.013Z,17.00
2023-02-05T22:30:27.617Z,29.50
2023-02-05T22:32:56.699Z,26.03
2023-02-05T22:35:23.238Z,12.23
2023-02-05T22:37:49.750Z,12.17
2023-02-05T22:40:16.507Z,15.00
2023-02-05T22:42:44.403Z,5.93
2023-02-05T22:45:10.876Z,10.87
2023-02-05T22:47:37.372Z,10.00
2023-02-05T22:50:03.871Z,7.57
2023-02-05T22:52:30.368Z,27.97
2023-02-05T22:54:56.867Z,13.40
2023-02-05T22:57:23.381Z,11.30
2023-02-05T22:59:49.864Z,15.53
2023-02-05T23:02:16.346Z,7.10
2023-02-05T23:04:42.819Z,8.93
2023-02-05T23:07:09.407Z,19.90
2023-02-05T23:09:35.970Z,11.90
2023-02-05T23:12:03.199Z,19.50
2023-02-05T23:14:29.762Z,17.50
2023-02-05T23:16:58.958Z,12.50
2023-02-05T23:19:25.597Z,18.07
2023-02-05T23:21:52.104Z,9.13
2023-02-05T23:24:18.625Z,12.57
2023-02-05T23:26:45.221Z,17.63
2023-02-05T23:29:11.757Z,15.17
2023-02-05T23:31:38.330Z,14.40
2023-02-05T23:34:04.859Z,17.40
2023-02-05T23:36:31.361Z,20.50
2023-02-05T23:38:57.860Z,24.63
2023-02-05T23:41:37.052Z,18.73
2023-02-05T23:44:03.804Z,23.70
2023-02-05T23:46:30.313Z,24.80
2023-02-05T23:48:56.800Z,12.33
2023-02-05T23:51:23.324Z,10.23
2023-02-05T23:53:49.872Z,7.33
2023-02-05T23:56:16.416Z,12.10
2023-02-05T23:58:42.892Z,16.13
